sensor_id;sensor_type;location;lat;lon;timestamp;P1;durP1;ratioP1;P2;durP2;ratioP2
5638;SDS011;2841;44.526;11.360;2022-08-23T00:02:07;8.40;;;2.10;;
5638;SDS011;2841;44.526;11.360;2022-08-23T00:04:38;3.87;;;1.77;;
5638;SDS011;2841;44.526;11.360;2022-08-23T00:07:12;4.23;;;2.00;;
5638;SDS011;2841;44.526;11.360;2022-08-23T00:09:41;2.33;;;1.30;;
5638;SDS011;2841;44.526;11.360;2022-08-23T00:12:10;3.10;;;1.30;;
5638;SDS011;2841;44.526;11.360;2022-08-23T00:14:40;2.83;;;1.73;;
5638;SDS011;2841;44.526;11.360;2022-08-23T00:17:09;3.20;;;1.70;;
5638;SDS011;2841;44.526;11.360;2022-08-23T00:19:40;4.63;;;1.70;;
5638;SDS011;2841;44.526;11.360;2022-08-23T00:22:08;3.70;;;1.80;;
5638;SDS011;2841;44.526;11.360;2022-08-23T00:24:36;4.33;;;2.07;;
5638;SDS011;2841;44.526;11.360;2022-08-23T00:27:04;4.90;;;2.10;;
5638;SDS011;2841;44.526;11.360;2022-08-23T00:29:36;3.37;;;2.10;;
5638;SDS011;2841;44.526;11.360;2022-08-23T00:32:05;4.10;;;1.60;;
5638;SDS011;2841;44.526;11.360;2022-08-23T00:34:34;2.80;;;1.83;;
5638;SDS011;2841;44.526;11.360;2022-08-23T00:37:03;2.93;;;1.53;;
5638;SDS011;2841;44.526;11.360;2022-08-23T00:39:31;2.60;;;1.33;;
5638;SDS011;2841;44.526;11.360;2022-08-23T00:41:59;5.23;;;1.87;;
5638;SDS011;2841;44.526;11.360;2022-08-23T00:44:50;2.53;;;1.47;;
5638;SDS011;2841;44.526;11.360;2022-08-23T00:47:34;3.30;;;1.80;;
5638;SDS011;2841;44.526;11.360;2022-08-23T00:50:06;5.73;;;1.47;;
5638;SDS011;2841;44.526;11.360;2022-08-23T00:52:42;3.07;;;1.80;;
5638;SDS011;2841;44.526;11.360;2022-08-23T00:55:15;4.10;;;1.93;;
5638;SDS011;2841;44.526;11.360;2022-08-23T00:57:43;3.23;;;1.60;;
5638;SDS011;2841;44.526;11.360;2022-08-23T01:00:12;6.73;;;2.27;;
5638;SDS011;2841;44.526;11.360;2022-08-23T01:02:40;8.80;;;1.97;;
5638;SDS011;2841;44.526;11.360;2022-08-23T01:05:08;3.30;;;1.70;;
5638;SDS011;2841;44.526;11.360;2022-08-23T01:07:40;2.77;;;1.20;;
5638;SDS011;2841;44.526;11.360;2022-08-23T01:10:14;3.90;;;2.23;;
5638;SDS011;2841;44.526;11.360;2022-08-23T01:12:49;2.80;;;1.93;;
5638;SDS011;2841;44.526;11.360;2022-08-23T01:15:21;4.37;;;1.90;;
5638;SDS011;2841;44.526;11.360;2022-08-23T01:17:53;9.83;;;1.77;;
5638;SDS011;2841;44.526;11.360;2022-08-23T01:20:23;2.43;;;1.47;;
5638;SDS011;2841;44.526;11.360;2022-08-23T01:22:53;4.03;;;1.53;;
5638;SDS011;2841;44.526;11.360;2022-08-23T01:25:27;3.43;;;1.53;;
5638;SDS011;2841;44.526;11.360;2022-08-23T01:27:56;6.50;;;2.07;;
5638;SDS011;2841;44.526;11.360;2022-08-23T01:30:25;10.20;;;2.20;;
5638;SDS011;2841;44.526;11.360;2022-08-23T01:32:56;2.30;;;1.33;;
5638;SDS011;2841;44.526;11.360;2022-08-23T01:35:28;9.30;;;1.97;;
5638;SDS011;2841;44.526;11.360;2022-08-23T01:38:05;3.47;;;1.77;;
5638;SDS011;2841;44.526;11.360;2022-08-23T01:40:34;5.93;;;2.10;;
5638;SDS011;2841;44.526;11.360;2022-08-23T01:43:04;2.93;;;1.60;;
5638;SDS011;2841;44.526;11.360;2022-08-23T01:45:31;6.53;;;1.80;;
5638;SDS011;2841;44.526;11.360;2022-08-23T01:47:59;15.17;;;2.30;;
5638;SDS011;2841;44.526;11.360;2022-08-23T01:50:26;2.80;;;1.70;;
5638;SDS011;2841;44.526;11.360;2022-08-23T01:52:54;2.87;;;1.67;;
5638;SDS011;2841;44.526;11.360;2022-08-23T01:55:21;5.33;;;1.73;;
5638;SDS011;2841;44.526;11.360;2022-08-23T01:57:50;4.70;;;1.40;;
5638;SDS011;2841;44.526;11.360;2022-08-23T02:00:21;4.07;;;2.00;;
5638;SDS011;2841;44.526;11.360;2022-08-23T02:02:49;3.10;;;1.70;;
5638;SDS011;2841;44.526;11.360;2022-08-23T02:05:16;3.23;;;1.90;;
5638;SDS011;2841;44.526;11.360;2022-08-23T02:07:44;4.80;;;1.83;;
5638;SDS011;2841;44.526;11.360;2022-08-23T02:10:11;3.53;;;1.33;;
5638;SDS011;2841;44.526;11.360;2022-08-23T02:12:38;3.10;;;1.80;;
5638;SDS011;2841;44.526;11.360;2022-08-23T02:15:08;2.30;;;1.20;;
5638;SDS011;2841;44.526;11.360;2022-08-23T02:17:35;2.73;;;1.33;;
5638;SDS011;2841;44.526;11.360;2022-08-23T02:20:03;3.17;;;1.67;;
5638;SDS011;2841;44.526;11.360;2022-08-23T02:22:31;4.10;;;1.67;;
5638;SDS011;2841;44.526;11.360;2022-08-23T02:24:58;6.60;;;1.83;;
5638;SDS011;2841;44.526;11.360;2022-08-23T02:27:26;5.10;;;1.43;;
5638;SDS011;2841;44.526;11.360;2022-08-23T02:29:53;4.37;;;1.87;;
5638;SDS011;2841;44.526;11.360;2022-08-23T02:32:21;5.80;;;1.60;;
5638;SDS011;2841;44.526;11.360;2022-08-23T02:34:50;3.20;;;1.87;;
5638;SDS011;2841;44.526;11.360;2022-08-23T02:37:17;3.40;;;1.80;;
5638;SDS011;2841;44.526;11.360;2022-08-23T02:39:44;4.67;;;2.17;;
5638;SDS011;2841;44.526;11.360;2022-08-23T02:42:12;3.83;;;2.20;;
5638;SDS011;2841;44.526;11.360;2022-08-23T02:44:40;3.40;;;1.80;;
5638;SDS011;2841;44.526;11.360;2022-08-23T02:47:07;4.60;;;2.67;;
5638;SDS011;2841;44.526;11.360;2022-08-23T02:49:37;12.20;;;1.77;;
5638;SDS011;2841;44.526;11.360;2022-08-23T02:52:05;3.90;;;2.17;;
5638;SDS011;2841;44.526;11.360;2022-08-23T02:54:34;7.10;;;1.97;;
5638;SDS011;2841;44.526;11.360;2022-08-23T02:57:01;3.83;;;2.20;;
5638;SDS011;2841;44.526;11.360;2022-08-23T02:59:28;5.43;;;2.50;;
5638;SDS011;2841;44.526;11.360;2022-08-23T03:01:56;4.70;;;2.50;;
5638;SDS011;2841;44.526;11.360;2022-08-23T03:04:23;3.97;;;1.60;;
5638;SDS011;2841;44.526;11.360;2022-08-23T03:06:52;2.40;;;1.50;;
5638;SDS011;2841;44.526;11.360;2022-08-23T03:09:19;4.07;;;2.43;;
5638;SDS011;2841;44.526;11.360;2022-08-23T03:11:46;4.10;;;2.20;;
5638;SDS011;2841;44.526;11.360;2022-08-23T03:14:15;3.70;;;2.00;;
5638;SDS011;2841;44.526;11.360;2022-08-23T03:16:42;4.60;;;2.33;;
5638;SDS011;2841;44.526;11.360;2022-08-23T03:19:09;3.83;;;2.37;;
5638;SDS011;2841;44.526;11.360;2022-08-23T03:21:37;3.67;;;2.23;;
5638;SDS011;2841;44.526;11.360;2022-08-23T03:24:05;3.70;;;2.40;;
5638;SDS011;2841;44.526;11.360;2022-08-23T03:26:32;5.20;;;2.70;;
5638;SDS011;2841;44.526;11.360;2022-08-23T03:29:00;5.23;;;2.17;;
5638;SDS011;2841;44.526;11.360;2022-08-23T03:31:27;4.37;;;3.10;;
5638;SDS011;2841;44.526;11.360;2022-08-23T03:33:54;4.57;;;2.50;;
5638;SDS011;2841;44.526;11.360;2022-08-23T03:36:22;4.93;;;2.63;;
5638;SDS011;2841;44.526;11.360;2022-08-23T03:38:49;5.00;;;2.67;;
5638;SDS011;2841;44.526;11.360;2022-08-23T03:41:18;4.53;;;2.27;;
5638;SDS011;2841;44.526;11.360;2022-08-23T03:43:45;4.23;;;2.30;;
5638;SDS011;2841;44.526;11.360;2022-08-23T03:46:12;5.23;;;3.20;;
5638;SDS011;2841;44.526;11.360;2022-08-23T03:48:47;3.90;;;2.10;;
5638;SDS011;2841;44.526;11.360;2022-08-23T03:51:16;4.90;;;1.93;;
5638;SDS011;2841;44.526;11.360;2022-08-23T03:53:43;8.80;;;2.60;;
5638;SDS011;2841;44.526;11.360;2022-08-23T03:56:21;10.23;;;2.40;;
5638;SDS011;2841;44.526;11.360;2022-08-23T03:58:49;5.03;;;2.23;;
5638;SDS011;2841;44.526;11.360;2022-08-23T04:01:16;4.20;;;2.60;;
5638;SDS011;2841;44.526;11.360;2022-08-23T04:03:43;4.27;;;2.57;;
5638;SDS011;2841;44.526;11.360;2022-08-23T04:06:11;3.50;;;1.93;;
5638;SDS011;2841;44.526;11.360;2022-08-23T04:08:38;4.33;;;2.00;;
5638;SDS011;2841;44.526;11.360;2022-08-23T04:11:05;17.10;;;2.90;;
5638;SDS011;2841;44.526;11.360;2022-08-23T04:13:34;10.90;;;2.40;;
5638;SDS011;2841;44.526;11.360;2022-08-23T04:16:03;5.80;;;2.40;;
5638;SDS011;2841;44.526;11.360;2022-08-23T04:18:31;4.50;;;1.73;;
5638;SDS011;2841;44.526;11.360;2022-08-23T04:20:59;3.87;;;2.03;;
5638;SDS011;2841;44.526;11.360;2022-08-23T04:23:29;5.50;;;2.07;;
5638;SDS011;2841;44.526;11.360;2022-08-23T04:25:56;9.83;;;3.20;;
5638;SDS011;2841;44.526;11.360;2022-08-23T04:28:23;7.07;;;2.80;;
5638;SDS011;2841;44.526;11.360;2022-08-23T04:30:52;11.40;;;3.10;;
5638;SDS011;2841;44.526;11.360;2022-08-23T04:33:19;7.07;;;2.17;;
5638;SDS011;2841;44.526;11.360;2022-08-23T04:35:46;4.70;;;3.17;;
5638;SDS011;2841;44.526;11.360;2022-08-23T04:38:13;7.50;;;3.13;;
5638;SDS011;2841;44.526;11.360;2022-08-23T04:40:41;5.97;;;2.50;;
5638;SDS011;2841;44.526;11.360;2022-08-23T04:43:25;4.67;;;2.57;;
5638;SDS011;2841;44.526;11.360;2022-08-23T04:45:53;8.50;;;2.67;;
5638;SDS011;2841;44.526;11.360;2022-08-23T04:48:21;4.87;;;2.33;;
5638;SDS011;2841;44.526;11.360;2022-08-23T04:50:48;4.97;;;2.80;;
5638;SDS011;2841;44.526;11.360;2022-08-23T04:53:16;4.30;;;2.40;;
5638;SDS011;2841;44.526;11.360;2022-08-23T04:55:43;24.57;;;2.83;;
5638;SDS011;2841;44.526;11.360;2022-08-23T04:58:10;7.43;;;2.50;;
5638;SDS011;2841;44.526;11.360;2022-08-23T05:00:38;15.07;;;2.97;;
5638;SDS011;2841;44.526;11.360;2022-08-23T05:03:06;3.23;;;1.93;;
5638;SDS011;2841;44.526;11.360;2022-08-23T05:05:33;4.97;;;2.20;;
5638;SDS011;2841;44.526;11.360;2022-08-23T05:08:00;4.97;;;2.17;;
5638;SDS011;2841;44.526;11.360;2022-08-23T05:10:28;3.57;;;2.10;;
5638;SDS011;2841;44.526;11.360;2022-08-23T05:12:55;3.13;;;1.87;;
5638;SDS011;2841;44.526;11.360;2022-08-23T05:15:22;6.20;;;2.80;;
5638;SDS011;2841;44.526;11.360;2022-08-23T05:17:49;5.70;;;2.30;;
5638;SDS011;2841;44.526;11.360;2022-08-23T05:20:18;22.47;;;2.63;;
5638;SDS011;2841;44.526;11.360;2022-08-23T05:22:45;10.43;;;1.90;;
5638;SDS011;2841;44.526;11.360;2022-08-23T05:25:12;5.40;;;2.57;;
5638;SDS011;2841;44.526;11.360;2022-08-23T05:27:39;5.60;;;2.53;;
5638;SDS011;2841;44.526;11.360;2022-08-23T05:30:07;5.97;;;1.90;;
5638;SDS011;2841;44.526;11.360;2022-08-23T05:32:35;6.70;;;2.33;;
5638;SDS011;2841;44.526;11.360;2022-08-23T05:35:02;2.93;;;1.70;;
5638;SDS011;2841;44.526;11.360;2022-08-23T05:37:31;3.23;;;2.20;;
5638;SDS011;2841;44.526;11.360;2022-08-23T05:39:58;5.40;;;1.63;;
5638;SDS011;2841;44.526;11.360;2022-08-23T05:42:25;2.97;;;1.50;;
5638;SDS011;2841;44.526;11.360;2022-08-23T05:44:53;4.03;;;2.33;;
5638;SDS011;2841;44.526;11.360;2022-08-23T05:47:20;6.77;;;1.60;;
5638;SDS011;2841;44.526;11.360;2022-08-23T05:49:51;5.07;;;1.73;;
5638;SDS011;2841;44.526;11.360;2022-08-23T05:52:18;4.50;;;1.40;;
5638;SDS011;2841;44.526;11.360;2022-08-23T05:54:46;2.90;;;1.20;;
5638;SDS011;2841;44.526;11.360;2022-08-23T05:57:13;3.37;;;1.80;;
5638;SDS011;2841;44.526;11.360;2022-08-23T05:59:40;4.20;;;1.50;;
5638;SDS011;2841;44.526;11.360;2022-08-23T06:02:07;2.93;;;1.10;;
5638;SDS011;2841;44.526;11.360;2022-08-23T06:04:35;3.90;;;1.37;;
5638;SDS011;2841;44.526;11.360;2022-08-23T06:07:02;7.00;;;1.70;;
5638;SDS011;2841;44.526;11.360;2022-08-23T06:09:30;4.70;;;1.73;;
5638;SDS011;2841;44.526;11.360;2022-08-23T06:11:59;3.60;;;1.43;;
5638;SDS011;2841;44.526;11.360;2022-08-23T06:14:26;2.20;;;1.10;;
5638;SDS011;2841;44.526;11.360;2022-08-23T06:16:53;4.27;;;1.77;;
5638;SDS011;2841;44.526;11.360;2022-08-23T06:19:20;3.17;;;1.40;;
5638;SDS011;2841;44.526;11.360;2022-08-23T06:21:48;3.60;;;1.57;;
5638;SDS011;2841;44.526;11.360;2022-08-23T06:24:16;13.37;;;1.80;;
5638;SDS011;2841;44.526;11.360;2022-08-23T06:26:43;2.70;;;1.17;;
5638;SDS011;2841;44.526;11.360;2022-08-23T06:29:13;3.30;;;1.13;;
5638;SDS011;2841;44.526;11.360;2022-08-23T06:31:42;8.27;;;1.50;;
5638;SDS011;2841;44.526;11.360;2022-08-23T06:34:12;2.20;;;1.10;;
5638;SDS011;2841;44.526;11.360;2022-08-23T06:36:43;2.67;;;1.30;;
5638;SDS011;2841;44.526;11.360;2022-08-23T06:39:11;2.40;;;1.10;;
5638;SDS011;2841;44.526;11.360;2022-08-23T06:41:39;3.30;;;1.73;;
5638;SDS011;2841;44.526;11.360;2022-08-23T06:44:06;3.80;;;1.90;;
5638;SDS011;2841;44.526;11.360;2022-08-23T06:46:35;2.57;;;1.10;;
5638;SDS011;2841;44.526;11.360;2022-08-23T06:49:03;4.03;;;1.23;;
5638;SDS011;2841;44.526;11.360;2022-08-23T06:51:32;4.43;;;1.70;;
5638;SDS011;2841;44.526;11.360;2022-08-23T06:54:01;3.87;;;1.33;;
5638;SDS011;2841;44.526;11.360;2022-08-23T06:56:30;2.73;;;1.60;;
5638;SDS011;2841;44.526;11.360;2022-08-23T06:58:57;3.43;;;0.93;;
5638;SDS011;2841;44.526;11.360;2022-08-23T07:01:29;4.77;;;1.40;;
5638;SDS011;2841;44.526;11.360;2022-08-23T07:04:00;3.97;;;1.63;;
5638;SDS011;2841;44.526;11.360;2022-08-23T07:06:28;3.30;;;1.47;;
5638;SDS011;2841;44.526;11.360;2022-08-23T07:08:56;2.30;;;1.20;;
5638;SDS011;2841;44.526;11.360;2022-08-23T07:11:24;4.40;;;1.00;;
5638;SDS011;2841;44.526;11.360;2022-08-23T07:13:51;2.97;;;1.60;;
5638;SDS011;2841;44.526;11.360;2022-08-23T07:16:19;1.70;;;0.73;;
5638;SDS011;2841;44.526;11.360;2022-08-23T07:18:46;4.10;;;1.40;;
5638;SDS011;2841;44.526;11.360;2022-08-23T07:21:16;2.37;;;1.07;;
5638;SDS011;2841;44.526;11.360;2022-08-23T07:23:44;3.53;;;1.50;;
5638;SDS011;2841;44.526;11.360;2022-08-23T07:26:12;3.43;;;1.50;;
5638;SDS011;2841;44.526;11.360;2022-08-23T07:28:40;2.40;;;1.20;;
5638;SDS011;2841;44.526;11.360;2022-08-23T07:31:08;5.40;;;1.50;;
5638;SDS011;2841;44.526;11.360;2022-08-23T07:33:38;4.33;;;1.23;;
5638;SDS011;2841;44.526;11.360;2022-08-23T07:36:06;4.90;;;1.90;;
5638;SDS011;2841;44.526;11.360;2022-08-23T07:38:36;32.40;;;2.07;;
5638;SDS011;2841;44.526;11.360;2022-08-23T07:41:03;5.53;;;1.70;;
5638;SDS011;2841;44.526;11.360;2022-08-23T07:43:31;3.43;;;1.33;;
5638;SDS011;2841;44.526;11.360;2022-08-23T07:45:58;5.33;;;1.60;;
5638;SDS011;2841;44.526;11.360;2022-08-23T07:48:26;3.83;;;1.90;;
5638;SDS011;2841;44.526;11.360;2022-08-23T07:50:54;2.90;;;1.27;;
5638;SDS011;2841;44.526;11.360;2022-08-23T07:53:23;3.83;;;1.47;;
5638;SDS011;2841;44.526;11.360;2022-08-23T07:55:51;5.90;;;1.87;;
5638;SDS011;2841;44.526;11.360;2022-08-23T07:58:19;6.17;;;1.30;;
5638;SDS011;2841;44.526;11.360;2022-08-23T08:00:46;4.33;;;1.70;;
5638;SDS011;2841;44.526;11.360;2022-08-23T08:03:13;2.70;;;1.27;;
5638;SDS011;2841;44.526;11.360;2022-08-23T08:05:41;6.17;;;1.53;;
5638;SDS011;2841;44.526;11.360;2022-08-23T08:08:08;13.50;;;1.50;;
5638;SDS011;2841;44.526;11.360;2022-08-23T08:10:36;18.13;;;1.90;;
5638;SDS011;2841;44.526;11.360;2022-08-23T08:13:06;2.10;;;1.20;;
5638;SDS011;2841;44.526;11.360;2022-08-23T08:15:34;10.63;;;1.30;;
5638;SDS011;2841;44.526;11.360;2022-08-23T08:18:01;5.83;;;1.30;;
5638;SDS011;2841;44.526;11.360;2022-08-23T08:20:28;7.30;;;1.50;;
5638;SDS011;2841;44.526;11.360;2022-08-23T08:22:59;2.40;;;1.30;;
5638;SDS011;2841;44.526;11.360;2022-08-23T08:25:26;3.20;;;1.67;;
5638;SDS011;2841;44.526;11.360;2022-08-23T08:27:56;7.50;;;1.43;;
5638;SDS011;2841;44.526;11.360;2022-08-23T08:30:25;5.73;;;1.60;;
5638;SDS011;2841;44.526;11.360;2022-08-23T08:32:52;10.33;;;2.00;;
5638;SDS011;2841;44.526;11.360;2022-08-23T08:35:19;3.60;;;1.40;;
5638;SDS011;2841;44.526;11.360;2022-08-23T08:37:46;5.00;;;2.00;;
5638;SDS011;2841;44.526;11.360;2022-08-23T08:40:14;5.50;;;1.40;;
5638;SDS011;2841;44.526;11.360;2022-08-23T08:42:53;6.23;;;1.63;;
5638;SDS011;2841;44.526;11.360;2022-08-23T08:45:41;3.43;;;1.33;;
5638;SDS011;2841;44.526;11.360;2022-08-23T08:48:16;3.80;;;1.70;;
5638;SDS011;2841;44.526;11.360;2022-08-23T08:50:48;3.20;;;1.87;;
5638;SDS011;2841;44.526;11.360;2022-08-23T08:53:21;4.97;;;1.90;;
5638;SDS011;2841;44.526;11.360;2022-08-23T08:55:55;4.13;;;1.77;;
5638;SDS011;2841;44.526;11.360;2022-08-23T08:58:25;15.10;;;1.67;;
5638;SDS011;2841;44.526;11.360;2022-08-23T09:00:57;2.90;;;1.70;;
5638;SDS011;2841;44.526;11.360;2022-08-23T09:03:25;5.97;;;2.27;;
5638;SDS011;2841;44.526;11.360;2022-08-23T09:05:58;3.47;;;1.47;;
5638;SDS011;2841;44.526;11.360;2022-08-23T09:08:40;6.30;;;1.40;;
5638;SDS011;2841;44.526;11.360;2022-08-23T09:11:17;2.23;;;1.20;;
5638;SDS011;2841;44.526;11.360;2022-08-23T09:14:06;4.03;;;2.10;;
5638;SDS011;2841;44.526;11.360;2022-08-23T09:16:48;4.33;;;1.83;;
5638;SDS011;2841;44.526;11.360;2022-08-23T09:19:17;5.50;;;1.60;;
5638;SDS011;2841;44.526;11.360;2022-08-23T09:21:46;2.20;;;1.30;;
5638;SDS011;2841;44.526;11.360;2022-08-23T09:24:20;3.47;;;2.00;;
5638;SDS011;2841;44.526;11.360;2022-08-23T09:26:47;3.37;;;1.90;;
5638;SDS011;2841;44.526;11.360;2022-08-23T09:29:18;3.07;;;1.97;;
5638;SDS011;2841;44.526;11.360;2022-08-23T09:31:49;4.40;;;1.73;;
5638;SDS011;2841;44.526;11.360;2022-08-23T09:34:19;2.83;;;1.57;;
5638;SDS011;2841;44.526;11.360;2022-08-23T09:36:47;5.80;;;1.50;;
5638;SDS011;2841;44.526;11.360;2022-08-23T09:39:25;2.70;;;1.40;;
5638;SDS011;2841;44.526;11.360;2022-08-23T09:41:55;2.70;;;1.30;;
5638;SDS011;2841;44.526;11.360;2022-08-23T09:44:31;5.33;;;2.00;;
5638;SDS011;2841;44.526;11.360;2022-08-23T09:47:06;2.93;;;1.50;;
5638;SDS011;2841;44.526;11.360;2022-08-23T09:49:37;3.40;;;1.20;;
5638;SDS011;2841;44.526;11.360;2022-08-23T09:54:53;5.23;;;1.87;;
5638;SDS011;2841;44.526;11.360;2022-08-23T09:57:23;5.63;;;1.80;;
5638;SDS011;2841;44.526;11.360;2022-08-23T09:59:53;4.50;;;1.50;;
5638;SDS011;2841;44.526;11.360;2022-08-23T10:02:24;4.20;;;1.60;;
5638;SDS011;2841;44.526;11.360;2022-08-23T10:04:55;2.40;;;1.27;;
5638;SDS011;2841;44.526;11.360;2022-08-23T10:07:32;2.67;;;1.23;;
5638;SDS011;2841;44.526;11.360;2022-08-23T10:10:13;2.77;;;1.50;;
5638;SDS011;2841;44.526;11.360;2022-08-23T10:12:48;2.90;;;1.17;;
5638;SDS011;2841;44.526;11.360;2022-08-23T10:15:15;2.20;;;1.20;;
5638;SDS011;2841;44.526;11.360;2022-08-23T10:17:47;2.47;;;1.30;;
5638;SDS011;2841;44.526;11.360;2022-08-23T10:20:24;3.10;;;1.30;;
5638;SDS011;2841;44.526;11.360;2022-08-23T10:23:01;4.00;;;1.30;;
5638;SDS011;2841;44.526;11.360;2022-08-23T10:25:38;2.23;;;1.10;;
5638;SDS011;2841;44.526;11.360;2022-08-23T10:28:10;4.47;;;1.63;;
5638;SDS011;2841;44.526;11.360;2022-08-23T10:31:00;2.80;;;1.30;;
5638;SDS011;2841;44.526;11.360;2022-08-23T10:33:36;3.53;;;1.30;;
5638;SDS011;2841;44.526;11.360;2022-08-23T10:36:09;21.03;;;1.63;;
5638;SDS011;2841;44.526;11.360;2022-08-23T10:38:43;5.07;;;1.20;;
5638;SDS011;2841;44.526;11.360;2022-08-23T10:44:20;2.53;;;1.47;;
5638;SDS011;2841;44.526;11.360;2022-08-23T10:46:52;4.50;;;1.70;;
5638;SDS011;2841;44.526;11.360;2022-08-23T10:49:27;2.30;;;1.33;;
5638;SDS011;2841;44.526;11.360;2022-08-23T10:51:55;2.63;;;1.30;;
5638;SDS011;2841;44.526;11.360;2022-08-23T10:54:26;6.67;;;1.00;;
5638;SDS011;2841;44.526;11.360;2022-08-23T10:57:00;2.43;;;1.10;;
5638;SDS011;2841;44.526;11.360;2022-08-23T10:59:29;3.47;;;1.67;;
5638;SDS011;2841;44.526;11.360;2022-08-23T11:02:02;2.50;;;1.20;;
5638;SDS011;2841;44.526;11.360;2022-08-23T11:04:37;3.33;;;1.13;;
5638;SDS011;2841;44.526;11.360;2022-08-23T11:07:14;1.90;;;0.80;;
5638;SDS011;2841;44.526;11.360;2022-08-23T11:09:52;2.87;;;1.20;;
5638;SDS011;2841;44.526;11.360;2022-08-23T11:12:24;2.13;;;1.03;;
5638;SDS011;2841;44.526;11.360;2022-08-23T11:15:07;3.43;;;1.53;;
5638;SDS011;2841;44.526;11.360;2022-08-23T11:17:40;4.37;;;1.10;;
5638;SDS011;2841;44.526;11.360;2022-08-23T11:29:34;4.97;;;1.10;;
5638;SDS011;2841;44.526;11.360;2022-08-23T11:32:09;1.73;;;0.90;;
5638;SDS011;2841;44.526;11.360;2022-08-23T11:34:49;6.07;;;1.53;;
5638;SDS011;2841;44.526;11.360;2022-08-23T11:37:23;3.50;;;1.47;;
5638;SDS011;2841;44.526;11.360;2022-08-23T11:40:04;6.23;;;0.90;;
5638;SDS011;2841;44.526;11.360;2022-08-23T11:42:44;2.30;;;0.80;;
5638;SDS011;2841;44.526;11.360;2022-08-23T11:45:21;3.33;;;1.10;;
5638;SDS011;2841;44.526;11.360;2022-08-23T11:48:02;2.27;;;1.00;;
5638;SDS011;2841;44.526;11.360;2022-08-23T11:50:41;1.97;;;0.87;;
5638;SDS011;2841;44.526;11.360;2022-08-23T11:53:39;2.67;;;1.00;;
5638;SDS011;2841;44.526;11.360;2022-08-23T11:56:29;3.73;;;1.33;;
5638;SDS011;2841;44.526;11.360;2022-08-23T12:05:18;2.30;;;1.00;;
5638;SDS011;2841;44.526;11.360;2022-08-23T12:10:57;6.23;;;0.80;;
5638;SDS011;2841;44.526;11.360;2022-08-23T12:16:29;1.50;;;0.70;;
5638;SDS011;2841;44.526;11.360;2022-08-23T12:19:02;3.20;;;0.80;;
5638;SDS011;2841;44.526;11.360;2022-08-23T12:21:41;2.43;;;0.93;;
5638;SDS011;2841;44.526;11.360;2022-08-23T12:24:13;1.87;;;0.90;;
5638;SDS011;2841;44.526;11.360;2022-08-23T12:26:46;2.37;;;1.30;;
5638;SDS011;2841;44.526;11.360;2022-08-23T12:29:26;1.70;;;0.70;;
5638;SDS011;2841;44.526;11.360;2022-08-23T12:32:02;4.80;;;1.57;;
5638;SDS011;2841;44.526;11.360;2022-08-23T12:34:38;4.40;;;1.03;;
5638;SDS011;2841;44.526;11.360;2022-08-23T12:37:15;2.00;;;0.80;;
5638;SDS011;2841;44.526;11.360;2022-08-23T12:39:50;2.27;;;0.90;;
5638;SDS011;2841;44.526;11.360;2022-08-23T12:42:24;2.00;;;0.80;;
5638;SDS011;2841;44.526;11.360;2022-08-23T12:45:03;2.63;;;1.07;;
5638;SDS011;2841;44.526;11.360;2022-08-23T12:47:33;3.40;;;1.00;;
5638;SDS011;2841;44.526;11.360;2022-08-23T12:50:02;2.43;;;0.97;;
5638;SDS011;2841;44.526;11.360;2022-08-23T12:52:34;4.90;;;1.23;;
5638;SDS011;2841;44.526;11.360;2022-08-23T12:55:02;1.77;;;0.97;;
5638;SDS011;2841;44.526;11.360;2022-08-23T12:57:39;2.80;;;0.90;;
5638;SDS011;2841;44.526;11.360;2022-08-23T13:00:16;3.93;;;1.37;;
5638;SDS011;2841;44.526;11.360;2022-08-23T13:02:48;2.57;;;1.13;;
5638;SDS011;2841;44.526;11.360;2022-08-23T13:05:23;5.50;;;1.43;;
5638;SDS011;2841;44.526;11.360;2022-08-23T13:07:57;1.80;;;0.80;;
5638;SDS011;2841;44.526;11.360;2022-08-23T13:10:25;2.67;;;1.27;;
5638;SDS011;2841;44.526;11.360;2022-08-23T13:12:52;2.13;;;1.00;;
5638;SDS011;2841;44.526;11.360;2022-08-23T13:15:40;2.13;;;0.97;;
5638;SDS011;2841;44.526;11.360;2022-08-23T13:18:23;1.60;;;0.90;;
5638;SDS011;2841;44.526;11.360;2022-08-23T13:23:42;1.97;;;0.80;;
5638;SDS011;2841;44.526;11.360;2022-08-23T13:26:27;2.20;;;1.20;;
5638;SDS011;2841;44.526;11.360;2022-08-23T13:29:03;2.43;;;0.90;;
5638;SDS011;2841;44.526;11.360;2022-08-23T13:31:50;4.60;;;1.03;;
5638;SDS011;2841;44.526;11.360;2022-08-23T13:37:14;14.33;;;1.30;;
5638;SDS011;2841;44.526;11.360;2022-08-23T13:39:44;1.90;;;0.80;;
5638;SDS011;2841;44.526;11.360;2022-08-23T13:42:14;2.80;;;1.10;;
5638;SDS011;2841;44.526;11.360;2022-08-23T13:44:51;2.10;;;1.03;;
5638;SDS011;2841;44.526;11.360;2022-08-23T13:47:22;2.10;;;1.30;;
5638;SDS011;2841;44.526;11.360;2022-08-23T13:49:50;3.47;;;1.30;;
5638;SDS011;2841;44.526;11.360;2022-08-23T13:52:19;5.97;;;1.03;;
5638;SDS011;2841;44.526;11.360;2022-08-23T13:54:46;2.37;;;1.30;;
5638;SDS011;2841;44.526;11.360;2022-08-23T13:57:15;2.73;;;0.97;;
5638;SDS011;2841;44.526;11.360;2022-08-23T13:59:46;2.37;;;0.80;;
5638;SDS011;2841;44.526;11.360;2022-08-23T14:02:16;3.00;;;1.00;;
5638;SDS011;2841;44.526;11.360;2022-08-23T14:04:47;1.97;;;0.90;;
5638;SDS011;2841;44.526;11.360;2022-08-23T14:07:15;1.70;;;0.80;;
5638;SDS011;2841;44.526;11.360;2022-08-23T14:09:42;6.20;;;1.10;;
5638;SDS011;2841;44.526;11.360;2022-08-23T14:12:10;4.93;;;1.50;;
5638;SDS011;2841;44.526;11.360;2022-08-23T14:14:39;2.97;;;1.23;;
5638;SDS011;2841;44.526;11.360;2022-08-23T14:17:08;3.13;;;0.80;;
5638;SDS011;2841;44.526;11.360;2022-08-23T14:19:36;1.90;;;0.70;;
5638;SDS011;2841;44.526;11.360;2022-08-23T14:22:04;2.27;;;1.03;;
5638;SDS011;2841;44.526;11.360;2022-08-23T14:24:32;1.80;;;0.93;;
5638;SDS011;2841;44.526;11.360;2022-08-23T14:26:59;3.00;;;1.10;;
5638;SDS011;2841;44.526;11.360;2022-08-23T14:29:26;2.90;;;1.30;;
5638;SDS011;2841;44.526;11.360;2022-08-23T14:31:54;2.37;;;0.80;;
5638;SDS011;2841;44.526;11.360;2022-08-23T14:34:22;2.13;;;1.03;;
5638;SDS011;2841;44.526;11.360;2022-08-23T14:36:49;1.97;;;0.97;;
5638;SDS011;2841;44.526;11.360;2022-08-23T14:39:19;3.40;;;0.80;;
5638;SDS011;2841;44.526;11.360;2022-08-23T14:41:47;1.83;;;0.87;;
5638;SDS011;2841;44.526;11.360;2022-08-23T14:44:15;2.07;;;1.00;;
5638;SDS011;2841;44.526;11.360;2022-08-23T14:46:42;3.73;;;0.73;;
5638;SDS011;2841;44.526;11.360;2022-08-23T14:49:09;3.30;;;1.10;;
5638;SDS011;2841;44.526;11.360;2022-08-23T14:51:39;2.17;;;1.00;;
5638;SDS011;2841;44.526;11.360;2022-08-23T14:54:10;4.70;;;1.27;;
5638;SDS011;2841;44.526;11.360;2022-08-23T14:56:40;1.50;;;0.60;;
5638;SDS011;2841;44.526;11.360;2022-08-23T14:59:08;2.20;;;0.80;;
5638;SDS011;2841;44.526;11.360;2022-08-23T15:01:36;1.20;;;0.60;;
5638;SDS011;2841;44.526;11.360;2022-08-23T15:04:04;2.67;;;0.93;;
5638;SDS011;2841;44.526;11.360;2022-08-23T15:06:32;5.73;;;1.10;;
5638;SDS011;2841;44.526;11.360;2022-08-23T15:08:59;1.40;;;0.60;;
5638;SDS011;2841;44.526;11.360;2022-08-23T15:11:27;5.20;;;1.03;;
5638;SDS011;2841;44.526;11.360;2022-08-23T15:13:55;6.70;;;1.10;;
5638;SDS011;2841;44.526;11.360;2022-08-23T15:16:24;1.70;;;0.83;;
5638;SDS011;2841;44.526;11.360;2022-08-23T15:18:51;3.00;;;0.83;;
5638;SDS011;2841;44.526;11.360;2022-08-23T15:21:18;2.00;;;1.00;;
5638;SDS011;2841;44.526;11.360;2022-08-23T15:23:45;2.43;;;1.00;;
5638;SDS011;2841;44.526;11.360;2022-08-23T15:26:13;1.73;;;0.70;;
5638;SDS011;2841;44.526;11.360;2022-08-23T15:28:43;1.97;;;0.87;;
5638;SDS011;2841;44.526;11.360;2022-08-23T15:31:11;1.93;;;0.80;;
5638;SDS011;2841;44.526;11.360;2022-08-23T15:33:39;1.70;;;0.70;;
5638;SDS011;2841;44.526;11.360;2022-08-23T15:36:07;2.00;;;1.00;;
5638;SDS011;2841;44.526;11.360;2022-08-23T15:38:36;3.63;;;0.90;;
5638;SDS011;2841;44.526;11.360;2022-08-23T15:41:04;5.80;;;1.43;;
5638;SDS011;2841;44.526;11.360;2022-08-23T15:43:32;1.50;;;0.67;;
5638;SDS011;2841;44.526;11.360;2022-08-23T15:46:02;1.10;;;0.60;;
5638;SDS011;2841;44.526;11.360;2022-08-23T15:48:33;1.37;;;0.60;;
5638;SDS011;2841;44.526;11.360;2022-08-23T15:51:03;1.60;;;0.70;;
5638;SDS011;2841;44.526;11.360;2022-08-23T15:53:31;2.30;;;0.90;;